Time;durP1;ratioP1;P1;durP2;ratioP2;P2;SDS_P1;SDS_P2;PMS_P1;PMS_P2;Temp;Humidity;BMP_temperature;BMP_pressure;BME280_temperature;BME280_humidity;BME280_pressure;Samples;Min_cycle;Max_cycle;Signal;HPM_P1;HPM_P2
2024/02/29 00:00:06;;;;;;;;;;;;;;;;;;5058009;28;20037;-56
2024/02/29 00:02:32;;;;;;;28.40;13.15;;;;;;;;;;5052969;28;20475;-57
2024/02/29 00:04:57;;;;;;;26.93;12.60;;;;;;;;;;5055301;28;20021;-58
2024/02/29 00:07:23;;;;;;;29.87;11.47;;;;;;;;;;5054717;28;20037;-58
2024/02/29 00:09:48;;;;;;;27.27;12.57;;;;;;;;;;5054915;28;20375;-58
2024/02/29 00:12:14;;;;;;;27.23;13.27;;;;;;;;;;5054882;28;20032;-59
2024/02/29 00:14:41;;;;;;;25.53;12.57;;;;;;;;;;5054203;28;20029;-59
2024/02/29 00:17:06;;;;;;;33.53;15.27;;;;;;;;;;5053695;28;20271;-56
2024/02/29 00:19:32;;;;;;;23.30;11.73;;;;;;;;;;5064946;28;20029;-56
2024/02/29 00:21:57;;;;;;;33.00;12.43;;;;;;;;;;5054180;28;20254;-56
2024/02/29 00:24:23;;;;;;;25.83;13.23;;;;;;;;;;5054625;28;20048;-57
2024/02/29 00:26:48;;;;;;;25.90;11.30;;;;;;;;;;5057794;28;20040;-56
2024/02/29 00:29:14;;;;;;;28.07;12.40;;;;;;;;;;5060391;28;20036;-56
2024/02/29 00:31:46;;;;;;;34.53;14.33;;;;;;;;;;5054627;28;20331;-54
2024/02/29 00:34:11;;;;;;;24.08;11.98;;;;;;;;;;5053929;28;20096;-54
2024/02/29 00:36:38;;;;;;;30.33;12.40;;;;;;;;;;5053938;28;20071;-59
2024/02/29 00:39:03;;;;;;;29.08;10.93;;;;;;;;;;5059994;28;20029;-56
2024/02/29 00:41:29;;;;;;;25.67;10.70;;;;;;;;;;5054181;28;20061;-56
2024/02/29 00:43:54;;;;;;;25.43;11.97;;;;;;;;;;5054372;28;20258;-58
2024/02/29 00:46:19;;;;;;;20.80;11.23;;;;;;;;;;5053408;28;20045;-57
2024/02/29 00:48:45;;;;;;;24.73;11.17;;;;;;;;;;5055752;28;20040;-57
2024/02/29 00:51:10;;;;;;;30.67;11.50;;;;;;;;;;5053003;28;20033;-57
2024/02/29 00:53:36;;;;;;;21.33;10.33;;;;;;;;;;5054177;28;20263;-55
2024/02/29 00:56:01;;;;;;;29.93;12.63;;;;;;;;;;5052136;28;20033;-57
2024/02/29 00:58:26;;;;;;;24.73;10.73;;;;;;;;;;5052643;28;20032;-58
2024/02/29 01:00:52;;;;;;;22.87;10.10;;;;;;;;;;5054084;28;20079;-57
2024/02/29 01:03:17;;;;;;;22.50;10.47;;;;;;;;;;5054363;28;20032;-57
2024/02/29 01:05:42;;;;;;;26.17;11.40;;;;;;;;;;5059326;28;20043;-57
2024/02/29 01:08:08;;;;;;;25.73;11.10;;;;;;;;;;5054970;28;20033;-57
2024/02/29 01:10:33;;;;;;;25.67;10.53;;;;;;;;;;5054304;28;20266;-56
2024/02/29 01:12:59;;;;;;;27.93;11.03;;;;;;;;;;5054507;28;20048;-58
2024/02/29 01:15:24;;;;;;;25.17;9.55;;;;;;;;;;5054118;28;20038;-55
2024/02/29 01:17:50;;;;;;;22.33;9.90;;;;;;;;;;5055290;28;20111;-56
2024/02/29 01:20:16;;;;;;;22.67;11.35;;;;;;;;;;5060742;28;20060;-57
2024/02/29 01:22:42;;;;;;;21.63;9.38;;;;;;;;;;5054003;28;20060;-56
2024/02/29 01:25:07;;;;;;;19.52;9.80;;;;;;;;;;5054112;28;20040;-57
2024/02/29 01:27:33;;;;;;;22.25;10.20;;;;;;;;;;5053387;28;20056;-57
2024/02/29 01:29:59;;;;;;;23.97;10.40;;;;;;;;;;5054035;28;20037;-57
2024/02/29 01:32:24;;;;;;;28.45;10.50;;;;;;;;;;5054055;28;20026;-57
2024/02/29 01:34:50;;;;;;;24.27;9.63;;;;;;;;;;5054071;28;20088;-56
2024/02/29 01:37:15;;;;;;;19.37;9.37;;;;;;;;;;5063431;28;20279;-58
2024/02/29 01:39:41;;;;;;;24.60;9.93;;;;;;;;;;5057608;28;20049;-59
2024/02/29 01:42:07;;;;;;;24.33;9.20;;;;;;;;;;5053896;28;20262;-56
2024/02/29 01:44:32;;;;;;;26.48;9.77;;;;;;;;;;5054216;28;20025;-60
2024/02/29 01:46:57;;;;;;;25.40;10.30;;;;;;;;;;5062077;28;20044;-56
2024/02/29 01:49:24;;;;;;;23.52;9.80;;;;;;;;;;5070340;28;20048;-57
2024/02/29 01:51:49;;;;;;;21.63;10.25;;;;;;;;;;5057353;28;20079;-57
2024/02/29 01:54:15;;;;;;;18.92;9.80;;;;;;;;;;5057910;28;20093;-56
2024/02/29 01:56:41;;;;;;;24.33;9.83;;;;;;;;;;5057311;28;20040;-56
2024/02/29 01:59:07;;;;;;;23.30;10.57;;;;;;;;;;5061668;28;20040;-55
2024/02/29 02:01:33;;;;;;;26.70;9.95;;;;;;;;;;5058137;28;20259;-56
2024/02/29 02:03:59;;;;;;;22.40;11.15;;;;;;;;;;5057599;28;20049;-56
2024/02/29 02:06:24;;;;;;;22.38;9.77;;;;;;;;;;5062162;28;20081;-59
2024/02/29 02:08:50;;;;;;;26.67;9.33;;;;;;;;;;5067011;28;20047;-55
2024/02/29 02:11:15;;;;;;;20.93;9.87;;;;;;;;;;5061431;28;20337;-58
2024/02/29 02:13:41;;;;;;;22.90;9.37;;;;;;;;;;5064915;28;20040;-58
2024/02/29 02:16:10;;;;;;;22.67;9.93;;;;;;;;;;5057086;28;20282;-56
2024/02/29 02:18:36;;;;;;;27.42;10.65;;;;;;;;;;5062901;28;20100;-58
2024/02/29 02:21:01;;;;;;;24.13;10.37;;;;;;;;;;5058570;28;20037;-55
2024/02/29 02:23:27;;;;;;;25.97;10.13;;;;;;;;;;5065000;28;20336;-57
2024/02/29 02:25:57;;;;;;;22.27;9.27;;;;;;;;;;5056780;28;20040;-59
2024/02/29 02:28:26;;;;;;;25.15;10.73;;;;;;;;;;5059962;28;20277;-56
2024/02/29 02:30:52;;;;;;;22.73;10.18;;;;;;;;;;5056673;28;20045;-58
2024/02/29 02:33:18;;;;;;;20.33;10.63;;;;;;;;;;5055795;28;20033;-56
2024/02/29 02:35:44;;;;;;;21.15;10.40;;;;;;;;;;5056076;28;20037;-57
2024/02/29 02:38:09;;;;;;;24.17;10.43;;;;;;;;;;5057598;28;20041;-54
2024/02/29 02:40:35;;;;;;;20.90;9.18;;;;;;;;;;5062431;28;20033;-59
2024/02/29 02:43:00;;;;;;;25.30;10.80;;;;;;;;;;5056525;28;20037;-55
2024/02/29 02:45:26;;;;;;;21.27;9.90;;;;;;;;;;5055444;28;20021;-58
2024/02/29 02:47:52;;;;;;;25.43;11.77;;;;;;;;;;5067603;28;20032;-58
2024/02/29 02:50:17;;;;;;;23.20;10.17;;;;;;;;;;5068108;28;20270;-58
2024/02/29 02:52:43;;;;;;;28.20;12.00;;;;;;;;;;5055727;28;20064;-58
2024/02/29 02:55:08;;;;;;;29.07;11.60;;;;;;;;;;5056530;28;20273;-56
2024/02/29 02:57:34;;;;;;;26.47;9.40;;;;;;;;;;5061919;28;20031;-57
2024/02/29 02:59:59;;;;;;;29.53;11.17;;;;;;;;;;5065487;28;20267;-57
2024/02/29 03:02:25;;;;;;;22.30;10.30;;;;;;;;;;5056422;28;20064;-57
2024/02/29 03:04:50;;;;;;;27.40;10.33;;;;;;;;;;5056564;28;20038;-57
2024/02/29 03:07:16;;;;;;;24.35;10.18;;;;;;;;;;5055699;28;20052;-56
2024/02/29 03:09:41;;;;;;;26.93;10.07;;;;;;;;;;5054595;28;20093;-58
2024/02/29 03:12:07;;;;;;;23.40;9.87;;;;;;;;;;5056316;28;20266;-58
2024/02/29 03:14:33;;;;;;;25.73;10.93;;;;;;;;;;5056126;28;20061;-57
2024/02/29 03:16:58;;;;;;;25.83;11.37;;;;;;;;;;5056312;28;20048;-56
2024/02/29 03:19:24;;;;;;;25.77;10.18;;;;;;;;;;5059566;28;20029;-58
2024/02/29 03:21:50;;;;;;;23.60;10.23;;;;;;;;;;5059117;28;20029;-58
2024/02/29 03:24:15;;;;;;;24.90;10.73;;;;;;;;;;5055766;28;20275;-56
2024/02/29 03:26:41;;;;;;;25.47;10.87;;;;;;;;;;5056098;28;20057;-59
2024/02/29 03:29:07;;;;;;;20.23;9.90;;;;;;;;;;5057607;28;20266;-58
2024/02/29 03:31:33;;;;;;;26.20;10.90;;;;;;;;;;5055602;28;20048;-55
2024/02/29 03:34:01;;;;;;;25.05;11.15;;;;;;;;;;5055881;28;20030;-56
2024/02/29 03:36:27;;;;;;;29.98;12.13;;;;;;;;;;5055896;28;20049;-56
2024/02/29 03:38:53;;;;;;;24.03;10.93;;;;;;;;;;5055570;28;20037;-56
2024/02/29 03:41:18;;;;;;;31.93;10.30;;;;;;;;;;5055468;28;20030;-56
2024/02/29 03:43:44;;;;;;;28.53;11.27;;;;;;;;;;5055358;28;20342;-57
2024/02/29 03:46:09;;;;;;;26.97;10.93;;;;;;;;;;5054810;28;20072;-57
2024/02/29 03:48:35;;;;;;;25.33;11.30;;;;;;;;;;5061933;28;20270;-56
2024/02/29 03:51:01;;;;;;;26.77;11.30;;;;;;;;;;5070054;28;20041;-58
2024/02/29 03:53:26;;;;;;;29.15;11.95;;;;;;;;;;5055830;28;20116;-54
2024/02/29 03:55:52;;;;;;;26.23;10.97;;;;;;;;;;5055417;28;20040;-57
2024/02/29 03:58:18;;;;;;;27.88;11.80;;;;;;;;;;5055784;28;20026;-58
2024/02/29 04:00:43;;;;;;;30.02;11.55;;;;;;;;;;5065566;28;20098;-58
2024/02/29 04:03:09;;;;;;;31.80;11.63;;;;;;;;;;5055783;28;20029;-56
2024/02/29 04:05:35;;;;;;;26.40;11.65;;;;;;;;;;5055261;28;20085;-55
2024/02/29 04:08:03;;;;;;;30.53;12.03;;;;;;;;;;5054885;28;20033;-57
2024/02/29 04:10:31;;;;;;;31.67;12.32;;;;;;;;;;5060295;28;20025;-58
2024/02/29 04:12:57;;;;;;;30.10;12.05;;;;;;;;;;5054844;28;20093;-56
2024/02/29 04:15:23;;;;;;;26.65;11.55;;;;;;;;;;5054021;28;20040;-58
2024/02/29 04:17:49;;;;;;;28.83;11.32;;;;;;;;;;5054914;28;20037;-58
2024/02/29 04:20:14;;;;;;;21.80;10.97;;;;;;;;;;5054931;28;20044;-57
2024/02/29 04:22:40;;;;;;;31.15;12.93;;;;;;;;;;5054676;28;20029;-57
2024/02/29 04:25:05;;;;;;;35.00;12.63;;;;;;;;;;5054265;28;20112;-57
2024/02/29 04:27:31;;;;;;;34.33;13.93;;;;;;;;;;5066212;28;20025;-58
2024/02/29 04:29:57;;;;;;;28.20;11.47;;;;;;;;;;5059125;28;20041;-57
2024/02/29 04:32:23;;;;;;;26.50;12.70;;;;;;;;;;5054402;28;20037;-55
2024/02/29 04:34:48;;;;;;;38.37;12.73;;;;;;;;;;5054771;28;20289;-59
2024/02/29 04:37:14;;;;;;;27.85;12.15;;;;;;;;;;5054567;28;20052;-59
2024/02/29 04:39:40;;;;;;;29.80;12.73;;;;;;;;;;5069290;28;20029;-56
2024/02/29 04:42:05;;;;;;;33.90;12.47;;;;;;;;;;5054904;28;20358;-57
2024/02/29 04:44:31;;;;;;;30.65;13.65;;;;;;;;;;5054737;28;20038;-55
2024/02/29 04:46:56;;;;;;;38.15;13.85;;;;;;;;;;5054395;28;20046;-56
2024/02/29 04:49:22;;;;;;;33.90;13.53;;;;;;;;;;5061175;28;20036;-58
2024/02/29 04:51:47;;;;;;;31.57;13.00;;;;;;;;;;5054594;28;20140;-58
2024/02/29 04:54:13;;;;;;;35.97;13.97;;;;;;;;;;5054475;28;20322;-59
2024/02/29 04:56:39;;;;;;;33.45;14.65;;;;;;;;;;5054725;28;20044;-56
2024/02/29 04:59:07;;;;;;;35.90;13.45;;;;;;;;;;5055807;28;20125;-56
2024/02/29 05:01:32;;;;;;;31.42;13.65;;;;;;;;;;5057237;28;20025;-56
2024/02/29 05:03:58;;;;;;;39.53;14.93;;;;;;;;;;5061620;28;20036;-55
2024/02/29 05:06:23;;;;;;;30.00;13.60;;;;;;;;;;5054309;28;20354;-57
2024/02/29 05:08:49;;;;;;;34.00;14.27;;;;;;;;;;5055782;28;20088;-58
2024/02/29 05:11:15;;;;;;;39.47;15.88;;;;;;;;;;5054054;28;20464;-54
2024/02/29 05:13:41;;;;;;;38.47;14.75;;;;;;;;;;5053910;28;20045;-57
2024/02/29 05:16:07;;;;;;;36.63;15.10;;;;;;;;;;5054177;28;20029;-57
2024/02/29 05:18:33;;;;;;;33.20;14.40;;;;;;;;;;5054135;28;20262;-58
2024/02/29 05:20:58;;;;;;;33.07;15.53;;;;;;;;;;5057482;28;20064;-56
2024/02/29 05:23:24;;;;;;;37.00;14.23;;;;;;;;;;5061421;28;20030;-58
2024/02/29 05:25:50;;;;;;;33.55;13.85;;;;;;;;;;5057981;28;20017;-55
2024/02/29 05:28:16;;;;;;;34.43;15.70;;;;;;;;;;5061988;28;20097;-56
2024/02/29 05:30:42;;;;;;;39.17;14.73;;;;;;;;;;5070295;28;20037;-56
2024/02/29 05:33:08;;;;;;;32.38;12.82;;;;;;;;;;5057919;28;20271;-55
2024/02/29 05:35:34;;;;;;;37.03;15.30;;;;;;;;;;5057913;28;20037;-57
2024/02/29 05:37:59;;;;;;;37.60;14.23;;;;;;;;;;5059136;28;20278;-57
2024/02/29 05:40:26;;;;;;;38.83;15.13;;;;;;;;;;5062414;28;20030;-56
2024/02/29 05:42:52;;;;;;;39.58;15.93;;;;;;;;;;5057552;28;20044;-58
2024/02/29 05:45:18;;;;;;;40.60;15.38;;;;;;;;;;5057174;28;20029;-55
2024/02/29 05:47:43;;;;;;;34.90;13.97;;;;;;;;;;5061539;28;20063;-57
2024/02/29 05:50:09;;;;;;;29.20;13.60;;;;;;;;;;5062807;28;20030;-57
2024/02/29 05:52:35;;;;;;;33.22;14.40;;;;;;;;;;5063513;28;20029;-57
2024/02/29 05:55:01;;;;;;;38.75;15.70;;;;;;;;;;5058301;28;20037;-57
2024/02/29 05:57:30;;;;;;;30.37;13.23;;;;;;;;;;5049837;28;20033;-56
2024/02/29 05:59:56;;;;;;;33.70;14.20;;;;;;;;;;5066463;28;20391;-59
2024/02/29 06:02:22;;;;;;;33.92;14.63;;;;;;;;;;5050007;28;20085;-55
2024/02/29 06:04:47;;;;;;;32.87;14.77;;;;;;;;;;5057357;28;20036;-57
2024/02/29 06:07:14;;;;;;;31.73;13.52;;;;;;;;;;5057262;28;20096;-55
2024/02/29 06:09:41;;;;;;;35.47;15.32;;;;;;;;;;5059191;28;20052;-58
2024/02/29 06:12:07;;;;;;;38.90;15.93;;;;;;;;;;5056320;28;20033;-57
2024/02/29 06:14:33;;;;;;;33.88;14.43;;;;;;;;;;5056988;28;20037;-57
2024/02/29 06:16:58;;;;;;;37.50;15.37;;;;;;;;;;5056540;28;20111;-57
2024/02/29 06:19:24;;;;;;;39.88;14.75;;;;;;;;;;5064642;28;20041;-57
2024/02/29 06:21:49;;;;;;;30.50;14.77;;;;;;;;;;5056064;28;20033;-57
2024/02/29 06:24:18;;;;;;;34.33;12.80;;;;;;;;;;5056944;28;20286;-55
2024/02/29 06:26:47;;;;;;;32.67;14.50;;;;;;;;;;5056549;28;20058;-57
2024/02/29 06:29:13;;;;;;;32.33;14.10;;;;;;;;;;5058804;28;20045;-58
2024/02/29 06:31:39;;;;;;;38.47;14.90;;;;;;;;;;5062140;28;20041;-59
2024/02/29 06:34:05;;;;;;;31.73;13.25;;;;;;;;;;5056683;28;20061;-57
2024/02/29 06:36:30;;;;;;;33.45;14.35;;;;;;;;;;5056401;28;20045;-58
2024/02/29 06:38:56;;;;;;;38.43;15.53;;;;;;;;;;5056661;28;20030;-56
2024/02/29 06:41:21;;;;;;;34.33;13.13;;;;;;;;;;5063101;28;20263;-59
2024/02/29 06:43:47;;;;;;;31.70;12.57;;;;;;;;;;5056378;28;20048;-57
2024/02/29 06:46:12;;;;;;;32.27;14.10;;;;;;;;;;5055286;28;20271;-56
2024/02/29 06:48:39;;;;;;;44.08;13.68;;;;;;;;;;5057192;28;20029;-60
2024/02/29 06:51:04;;;;;;;41.30;14.70;;;;;;;;;;5060427;28;20037;-57
2024/02/29 06:53:30;;;;;;;30.70;12.48;;;;;;;;;;5056182;28;20053;-59
2024/02/29 06:55:56;;;;;;;32.47;13.05;;;;;;;;;;5056066;28;20037;-59
2024/02/29 06:58:22;;;;;;;29.03;13.47;;;;;;;;;;5056368;28;20040;-59
2024/02/29 07:00:48;;;;;;;28.88;12.00;;;;;;;;;;5052795;28;20025;-61
2024/02/29 07:03:13;;;;;;;31.17;12.90;;;;;;;;;;5056169;28;20038;-60
2024/02/29 07:05:38;;;;;;;32.75;12.80;;;;;;;;;;5056064;28;20042;-58
2024/02/29 07:08:04;;;;;;;30.17;13.67;;;;;;;;;;5056302;28;20057;-60
2024/02/29 07:10:30;;;;;;;;;;;;;;;;;;5063423;28;20036;-59
2024/02/29 07:12:56;;;;;;;28.03;12.47;;;;;;;;;;5056223;28;19964;-59
2024/02/29 07:15:22;;;;;;;33.60;12.17;;;;;;;;;;5057297;28;20028;-59
2024/02/29 07:17:48;;;;;;;26.50;11.77;;;;;;;;;;5056175;28;20263;-60
2024/02/29 07:20:14;;;;;;;33.67;13.88;;;;;;;;;;5058744;28;20029;-59
2024/02/29 07:22:40;;;;;;;31.87;13.63;;;;;;;;;;5055067;28;20036;-58
2024/02/29 07:25:10;;;;;;;29.88;12.07;;;;;;;;;;5054496;28;20263;-57
2024/02/29 07:27:37;;;;;;;29.77;12.27;;;;;;;;;;5055419;28;20033;-59
2024/02/29 07:30:03;;;;;;;27.77;12.73;;;;;;;;;;5061556;28;20037;-59
2024/02/29 07:32:28;;;;;;;30.45;11.75;;;;;;;;;;5066671;28;20059;-58
2024/02/29 07:34:54;;;;;;;25.43;11.40;;;;;;;;;;5055465;28;20041;-61
2024/02/29 07:37:19;;;;;;;32.03;12.20;;;;;;;;;;5042351;28;20311;-60
2024/02/29 07:39:45;;;;;;;28.40;11.70;;;;;;;;;;5060094;28;20051;-59
2024/02/29 07:42:10;;;;;;;30.87;12.50;;;;;;;;;;5050712;28;20259;-59
2024/02/29 07:44:36;;;;;;;31.58;12.15;;;;;;;;;;5053915;28;20029;-60
2024/02/29 07:47:01;;;;;;;25.80;11.93;;;;;;;;;;5054941;28;20043;-59
2024/02/29 07:49:27;;;;;;;24.75;11.05;;;;;;;;;;5058805;28;20084;-59
2024/02/29 07:51:54;;;;;;;32.63;12.40;;;;;;;;;;5054768;28;20056;-60
2024/02/29 07:54:20;;;;;;;28.05;12.43;;;;;;;;;;5055044;28;20037;-59
2024/02/29 07:56:46;;;;;;;25.30;10.17;;;;;;;;;;5054499;28;20029;-58
2024/02/29 07:59:11;;;;;;;31.10;13.33;;;;;;;;;;5056276;28;20254;-56
2024/02/29 08:01:36;;;;;;;29.00;12.37;;;;;;;;;;5049749;28;20032;-59
2024/02/29 08:04:02;;;;;;;30.33;12.48;;;;;;;;;;5054554;28;20097;-58
2024/02/29 08:06:28;;;;;;;30.17;12.17;;;;;;;;;;5050626;28;20029;-57
2024/02/29 08:08:54;;;;;;;32.45;12.95;;;;;;;;;;5054444;28;20045;-58
2024/02/29 08:11:19;;;;;;;34.63;11.63;;;;;;;;;;5056426;28;20033;-60
2024/02/29 08:13:44;;;;;;;27.13;11.37;;;;;;;;;;5056495;28;20037;-58
2024/02/29 08:16:10;;;;;;;23.90;10.15;;;;;;;;;;5054208;28;20100;-58
2024/02/29 08:18:35;;;;;;;33.10;11.17;;;;;;;;;;5053891;28;20040;-58
2024/02/29 08:21:03;;;;;;;30.93;12.47;;;;;;;;;;5056695;28;20033;-60
2024/02/29 08:23:29;;;;;;;29.60;11.43;;;;;;;;;;5060034;28;20029;-56
2024/02/29 08:25:55;;;;;;;28.88;10.75;;;;;;;;;;5053378;28;20029;-58
2024/02/29 08:28:21;;;;;;;23.60;11.40;;;;;;;;;;5054106;28;20060;-57
2024/02/29 08:30:46;;;;;;;26.75;12.40;;;;;;;;;;5065090;28;20045;-56
2024/02/29 08:33:12;;;;;;;25.40;11.20;;;;;;;;;;5054643;28;20044;-56
2024/02/29 08:35:38;;;;;;;27.87;12.00;;;;;;;;;;5053630;28;20337;-57
2024/02/29 08:38:04;;;;;;;32.15;11.70;;;;;;;;;;5053934;28;20034;-58
2024/02/29 08:40:30;;;;;;;28.05;12.25;;;;;;;;;;5055368;28;20029;-58
2024/02/29 08:42:56;;;;;;;25.73;11.85;;;;;;;;;;5044376;28;20037;-58
2024/02/29 08:45:22;;;;;;;24.47;10.57;;;;;;;;;;5038986;28;20037;-56
2024/02/29 08:47:47;;;;;;;;;;;;;;;;;;5036543;28;20029;-58
2024/02/29 08:50:13;;;;;;;28.87;11.90;;;;;;;;;;5053487;28;19913;-56
2024/02/29 08:52:40;;;;;;;26.50;11.57;;;;;;;;;;5047294;28;20030;-58
2024/02/29 08:55:05;;;;;;;23.80;11.52;;;;;;;;;;5051146;28;20018;-59
2024/02/29 08:57:30;;;;;;;35.93;12.23;;;;;;;;;;5053082;28;20029;-58
2024/02/29 08:59:56;;;;;;;30.90;12.83;;;;;;;;;;5050114;28;20285;-57
2024/02/29 09:02:22;;;;;;;28.73;13.07;;;;;;;;;;5056150;28;20259;-59
2024/02/29 09:04:47;;;;;;;24.87;11.43;;;;;;;;;;5053006;28;20034;-55
2024/02/29 09:07:13;;;;;;;32.47;11.55;;;;;;;;;;5043586;28;20513;-56
2024/02/29 09:09:41;;;;;;;25.38;10.95;;;;;;;;;;5052121;28;20045;-59
2024/02/29 09:12:08;;;;;;;26.83;12.10;;;;;;;;;;5061810;28;20040;-59
2024/02/29 09:14:35;;;;;;;26.73;9.77;;;;;;;;;;5037908;28;20318;-59
2024/02/29 09:17:00;;;;;;;26.47;10.17;;;;;;;;;;5038359;28;20283;-56
2024/02/29 09:19:26;;;;;;;29.73;11.30;;;;;;;;;;5053051;28;20294;-57
2024/02/29 09:21:52;;;;;;;24.00;9.30;;;;;;;;;;5062851;28;20029;-59
2024/02/29 09:24:18;;;;;;;23.50;9.53;;;;;;;;;;5053647;28;20036;-56
2024/02/29 09:26:43;;;;;;;23.20;10.97;;;;;;;;;;5053625;28;20301;-58
2024/02/29 09:29:08;;;;;;;26.47;10.53;;;;;;;;;;5053686;28;20284;-54
2024/02/29 09:31:34;;;;;;;21.83;10.73;;;;;;;;;;5058144;28;20048;-58
2024/02/29 09:33:59;;;;;;;31.97;12.07;;;;;;;;;;5053522;28;20038;-58
2024/02/29 09:36:27;;;;;;;21.83;10.70;;;;;;;;;;5053656;28;20107;-58
2024/02/29 09:38:52;;;;;;;22.30;9.97;;;;;;;;;;5053216;28;20033;-56
2024/02/29 09:41:18;;;;;;;34.65;11.25;;;;;;;;;;5054891;28;20291;-56
2024/02/29 09:43:45;;;;;;;26.63;11.17;;;;;;;;;;5052588;28;20029;-58
2024/02/29 09:46:10;;;;;;;20.58;9.40;;;;;;;;;;5053281;28;20305;-57
2024/02/29 09:48:40;;;;;;;23.70;9.80;;;;;;;;;;5052035;28;20033;-57
2024/02/29 09:51:06;;;;;;;19.00;9.63;;;;;;;;;;5053197;28;20040;-58
2024/02/29 09:53:34;;;;;;;20.20;8.98;;;;;;;;;;5051174;28;20266;-56
2024/02/29 09:56:00;;;;;;;17.70;8.77;;;;;;;;;;5051914;28;20041;-55
2024/02/29 09:58:26;;;;;;;17.77;8.47;;;;;;;;;;5053688;28;20255;-56
2024/02/29 10:00:52;;;;;;;20.87;9.37;;;;;;;;;;5060387;28;20266;-56
2024/02/29 10:03:17;;;;;;;15.33;7.93;;;;;;;;;;5064011;28;20060;-58
2024/02/29 10:05:46;;;;;;;22.10;10.30;;;;;;;;;;5053106;28;20274;-57
2024/02/29 10:08:11;;;;;;;18.23;8.60;;;;;;;;;;5044736;28;20033;-57
2024/02/29 10:10:37;;;;;;;18.93;9.43;;;;;;;;;;5060836;28;20334;-58
2024/02/29 10:13:02;;;;;;;23.33;9.57;;;;;;;;;;5056974;28;20048;-54
2024/02/29 10:15:28;;;;;;;20.13;9.67;;;;;;;;;;5056830;28;20041;-58
2024/02/29 10:17:55;;;;;;;19.80;8.25;;;;;;;;;;5056642;28;20037;-57
2024/02/29 10:20:21;;;;;;;20.67;8.57;;;;;;;;;;5060921;28;20025;-60
2024/02/29 10:22:48;;;;;;;18.13;8.23;;;;;;;;;;5057197;28;20270;-59
2024/02/29 10:25:14;;;;;;;21.27;9.53;;;;;;;;;;5056853;28;20033;-59
2024/02/29 10:27:40;;;;;;;19.20;8.30;;;;;;;;;;5056715;28;20308;-59
2024/02/29 10:30:10;;;;;;;19.80;8.90;;;;;;;;;;5056680;28;20369;-58
2024/02/29 10:32:35;;;;;;;15.23;8.00;;;;;;;;;;5046206;28;20040;-59
2024/02/29 10:35:17;;;;;;;21.50;9.07;;;;;;;;;;5052531;28;20266;-60
2024/02/29 10:37:47;;;;;;;17.07;7.50;;;;;;;;;;5051579;28;20033;-58
2024/02/29 10:40:13;;;;;;;20.17;7.93;;;;;;;;;;5048895;28;20263;-59
2024/02/29 10:42:40;;;;;;;16.73;7.90;;;;;;;;;;5050395;28;20273;-59
2024/02/29 10:45:05;;;;;;;;;;;;;;;;;;5055517;28;20029;-60
2024/02/29 10:47:32;;;;;;;16.87;7.63;;;;;;;;;;5059653;28;19909;-57
2024/02/29 10:50:03;;;;;;;21.63;8.70;;;;;;;;;;5049641;28;20036;-61
2024/02/29 10:52:33;;;;;;;15.53;8.20;;;;;;;;;;5052839;28;20274;-58
2024/02/29 10:55:05;;;;;;;18.37;7.83;;;;;;;;;;5057311;28;20270;-57
2024/02/29 10:57:38;;;;;;;23.43;7.70;;;;;;;;;;5052767;28;20286;-58
2024/02/29 11:00:03;;;;;;;19.40;7.90;;;;;;;;;;5057816;28;20262;-58
2024/02/29 11:02:29;;;;;;;17.70;7.75;;;;;;;;;;5056842;28;20391;-57
2024/02/29 11:04:56;;;;;;;20.70;7.82;;;;;;;;;;5057163;28;20093;-56
2024/02/29 11:07:21;;;;;;;23.83;8.80;;;;;;;;;;5054986;28;20040;-58
2024/02/29 11:09:47;;;;;;;26.97;9.03;;;;;;;;;;5054841;28;20067;-57
2024/02/29 11:12:13;;;;;;;21.35;8.27;;;;;;;;;;5058348;28;20262;-59
2024/02/29 11:14:38;;;;;;;25.23;10.32;;;;;;;;;;5050562;28;20033;-59
2024/02/29 11:17:04;;;;;;;26.67;9.30;;;;;;;;;;5048384;28;20030;-59
2024/02/29 11:19:30;;;;;;;21.63;9.43;;;;;;;;;;5055603;28;20044;-60
2024/02/29 11:21:55;;;;;;;27.90;9.65;;;;;;;;;;5055709;28;20033;-61
2024/02/29 11:24:22;;;;;;;26.30;9.93;;;;;;;;;;5056045;28;20036;-60
2024/02/29 11:26:54;;;;;;;25.65;10.35;;;;;;;;;;5043047;28;20290;-61
2024/02/29 11:29:20;;;;;;;23.03;11.07;;;;;;;;;;5052990;28;20061;-61
2024/02/29 11:31:50;;;;;;;25.35;10.23;;;;;;;;;;5057831;28;20274;-58
2024/02/29 11:34:18;;;;;;;26.70;11.90;;;;;;;;;;5055145;28;20034;-60
2024/02/29 11:36:45;;;;;;;28.40;11.03;;;;;;;;;;5054856;28;20279;-60
2024/02/29 11:39:10;;;;;;;24.55;11.00;;;;;;;;;;5055075;28;20278;-58
2024/02/29 11:41:36;;;;;;;25.20;10.77;;;;;;;;;;5054872;28;20037;-60
2024/02/29 11:44:03;;;;;;;29.02;13.40;;;;;;;;;;5055081;28;20032;-59
2024/02/29 11:46:29;;;;;;;29.35;11.38;;;;;;;;;;5053975;28;20044;-61
2024/02/29 11:48:54;;;;;;;30.60;11.10;;;;;;;;;;5052848;28;20033;-60
2024/02/29 11:51:19;;;;;;;28.77;11.60;;;;;;;;;;5053104;28;20282;-60
2024/02/29 11:53:45;;;;;;;27.67;12.18;;;;;;;;;;5054431;28;20097;-58
2024/02/29 11:56:17;;;;;;;24.63;12.30;;;;;;;;;;5048833;28;20049;-60
2024/02/29 11:58:43;;;;;;;27.83;12.70;;;;;;;;;;5052841;28;20271;-59
2024/02/29 12:01:12;;;;;;;32.15;13.82;;;;;;;;;;5053890;28;20072;-59
2024/02/29 12:03:37;;;;;;;24.67;12.10;;;;;;;;;;5060657;28;20024;-60
2024/02/29 12:06:03;;;;;;;27.30;12.80;;;;;;;;;;5054212;28;20279;-61
2024/02/29 12:08:29;;;;;;;27.05;11.95;;;;;;;;;;5054762;28;20262;-59
2024/02/29 12:11:00;;;;;;;28.67;12.65;;;;;;;;;;5054977;28;20093;-59
2024/02/29 12:13:26;;;;;;;28.07;13.27;;;;;;;;;;5057171;28;20029;-60
2024/02/29 12:15:52;;;;;;;31.23;13.57;;;;;;;;;;5054852;28;20337;-59
2024/02/29 12:18:19;;;;;;;33.05;13.27;;;;;;;;;;5054633;28;20029;-60
2024/02/29 12:20:44;;;;;;;28.17;12.30;;;;;;;;;;5054760;28;20045;-61
2024/02/29 12:23:13;;;;;;;28.38;14.13;;;;;;;;;;5054985;28;20029;-60
2024/02/29 12:25:38;;;;;;;33.73;14.37;;;;;;;;;;5051919;28;20022;-60
2024/02/29 12:28:05;;;;;;;32.30;13.47;;;;;;;;;;5054516;28;20261;-60
2024/02/29 12:30:31;;;;;;;33.23;12.97;;;;;;;;;;5054637;28;20251;-60
2024/02/29 12:32:57;;;;;;;28.33;13.82;;;;;;;;;;5054492;28;20259;-60
2024/02/29 12:35:27;;;;;;;26.93;13.43;;;;;;;;;;5054215;28;20029;-59
2024/02/29 12:37:52;;;;;;;31.70;12.93;;;;;;;;;;5054759;28;20283;-61
2024/02/29 12:40:18;;;;;;;35.03;13.77;;;;;;;;;;5053997;28;20270;-60
2024/02/29 12:42:44;;;;;;;34.80;12.93;;;;;;;;;;5054138;28;20316;-60
2024/02/29 12:45:09;;;;;;;30.60;14.43;;;;;;;;;;5053779;28;20037;-61
2024/02/29 12:47:36;;;;;;;38.03;13.10;;;;;;;;;;5054421;28;20100;-61
2024/02/29 12:50:03;;;;;;;30.57;14.07;;;;;;;;;;5054395;28;20109;-61
2024/02/29 12:52:29;;;;;;;40.27;14.23;;;;;;;;;;5055082;28;20301;-61
2024/02/29 12:54:54;;;;;;;34.40;13.67;;;;;;;;;;5053878;28;20270;-61
2024/02/29 12:57:20;;;;;;;36.60;15.20;;;;;;;;;;5053417;28;20312;-61
2024/02/29 12:59:45;;;;;;;39.53;14.20;;;;;;;;;;5059945;28;20032;-60
2024/02/29 13:02:11;;;;;;;31.00;13.40;;;;;;;;;;5056991;28;20096;-61
2024/02/29 13:04:37;;;;;;;32.80;15.05;;;;;;;;;;5055724;28;20052;-60
2024/02/29 13:07:03;;;;;;;38.70;14.87;;;;;;;;;;5054352;28;20097;-61
2024/02/29 13:09:28;;;;;;;35.67;13.30;;;;;;;;;;5056515;28;20320;-60
2024/02/29 13:11:54;;;;;;;34.90;15.40;;;;;;;;;;5058213;28;20305;-61
2024/02/29 13:14:19;;;;;;;38.30;15.18;;;;;;;;;;5053970;28;20030;-61
2024/02/29 13:16:45;;;;;;;29.63;13.93;;;;;;;;;;5054127;28;20034;-60
2024/02/29 13:19:14;;;;;;;35.03;13.97;;;;;;;;;;5053832;28;20338;-61
2024/02/29 13:21:39;;;;;;;44.17;17.40;;;;;;;;;;5056047;28;20131;-61
2024/02/29 13:24:05;;;;;;;40.03;13.83;;;;;;;;;;5053955;28;20267;-61
2024/02/29 13:26:30;;;;;;;32.53;13.45;;;;;;;;;;5062447;28;20037;-61
2024/02/29 13:28:56;;;;;;;36.97;14.77;;;;;;;;;;5054019;28;20041;-61
2024/02/29 13:31:22;;;;;;;28.70;13.27;;;;;;;;;;5066092;28;20025;-61
2024/02/29 13:33:47;;;;;;;48.25;13.50;;;;;;;;;;5056367;28;20266;-61
2024/02/29 13:36:13;;;;;;;31.70;13.43;;;;;;;;;;5054023;28;20049;-61
2024/02/29 13:38:39;;;;;;;28.92;12.82;;;;;;;;;;5053856;28;20211;-61
2024/02/29 13:41:05;;;;;;;31.33;13.00;;;;;;;;;;5060498;28;20063;-61
2024/02/29 13:43:31;;;;;;;24.52;12.50;;;;;;;;;;5057209;28;20017;-61
2024/02/29 13:45:56;;;;;;;29.90;12.00;;;;;;;;;;5057926;28;20056;-62
2024/02/29 13:48:22;;;;;;;33.20;12.73;;;;;;;;;;5057571;28;20322;-61
2024/02/29 13:50:47;;;;;;;32.53;13.13;;;;;;;;;;5062569;28;20043;-61
2024/02/29 13:53:14;;;;;;;30.93;12.93;;;;;;;;;;5058832;28;20270;-60
2024/02/29 13:55:40;;;;;;;28.37;13.07;;;;;;;;;;5057250;28;20313;-61
2024/02/29 13:58:05;;;;;;;26.70;11.77;;;;;;;;;;5057512;28;20279;-62
2024/02/29 14:00:34;;;;;;;32.00;12.82;;;;;;;;;;5060039;28;20031;-62
2024/02/29 14:02:59;;;;;;;25.83;11.03;;;;;;;;;;5044651;28;20037;-61
2024/02/29 14:05:25;;;;;;;27.20;11.47;;;;;;;;;;5057285;28;20258;-61
2024/02/29 14:07:50;;;;;;;26.42;12.55;;;;;;;;;;5057120;28;20094;-61
2024/02/29 14:10:16;;;;;;;28.27;10.73;;;;;;;;;;5056902;28;20037;-61
2024/02/29 14:12:41;;;;;;;32.10;13.77;;;;;;;;;;5064135;28;20282;-60